createdAt,value
2024-03-18T00:00:31.513Z,83.51
2024-03-18T00:01:31.559Z,83.20
2024-03-18T00:02:31.608Z,83.20
2024-03-18T00:03:31.662Z,83.30
2024-03-18T00:04:31.695Z,83.20
2024-03-18T00:05:31.828Z,83.20
2024-03-18T00:06:31.884Z,83.20
2024-03-18T00:07:31.856Z,83.30
2024-03-18T00:08:31.940Z,83.20
2024-03-18T00:09:31.983Z,83.20
2024-03-18T00:10:31.996Z,82.99
2024-03-18T00:11:32.048Z,82.89
2024-03-18T00:12:32.104Z,83.13
2024-03-18T00:13:32.145Z,83.13
2024-03-18T00:14:32.233Z,83.13
2024-03-18T00:15:32.267Z,83.34
2024-03-18T00:16:32.335Z,83.76
2024-03-18T00:17:32.370Z,83.97
2024-03-18T00:18:32.485Z,83.97
2024-03-18T00:19:32.473Z,83.86
2024-03-18T00:20:32.545Z,83.97
2024-03-18T00:21:32.593Z,83.86
2024-03-18T00:22:32.652Z,83.76
2024-03-18T00:23:32.701Z,83.55
2024-03-18T00:24:32.768Z,83.55
2024-03-18T00:25:32.833Z,83.69
2024-03-18T00:26:32.877Z,83.80
2024-03-18T00:27:32.916Z,83.69
2024-03-18T00:28:32.977Z,83.59
2024-03-18T00:29:33.032Z,83.38
2024-03-18T00:30:33.095Z,83.90
2024-03-18T00:31:33.132Z,84.42
2024-03-18T00:32:33.213Z,84.42
2024-03-18T00:33:33.260Z,84.42
2024-03-18T00:34:33.316Z,84.32
2024-03-18T00:35:33.373Z,84.11
2024-03-18T00:36:33.411Z,84.11
2024-03-18T00:37:33.449Z,84.00
2024-03-18T00:38:33.521Z,83.90
2024-03-18T00:39:33.564Z,84.00
2024-03-18T00:40:33.619Z,83.90
2024-03-18T00:41:33.671Z,83.94
2024-03-18T00:42:33.718Z,84.11
2024-03-18T00:43:33.765Z,84.22
2024-03-18T00:44:33.826Z,84.11
2024-03-18T00:45:33.862Z,84.11
2024-03-18T00:46:33.938Z,84.11
2024-03-18T00:47:33.978Z,84.36
2024-03-18T00:48:34.055Z,85.13
2024-03-18T00:49:34.098Z,85.69
2024-03-18T00:50:34.150Z,86.11
2024-03-18T00:51:34.195Z,86.63
2024-03-18T00:52:34.260Z,86.99
2024-03-18T00:53:34.322Z,87.09
2024-03-18T00:54:34.362Z,87.58
2024-03-18T00:55:34.400Z,87.79
2024-03-18T00:56:34.466Z,87.47
2024-03-18T00:57:34.536Z,87.16
2024-03-18T00:58:34.622Z,86.80
2024-03-18T00:59:34.611Z,86.60
2024-03-18T01:00:34.697Z,86.38
2024-03-18T01:01:34.730Z,86.07
2024-03-18T01:02:34.797Z,85.75
2024-03-18T01:03:34.841Z,85.65
2024-03-18T01:04:34.901Z,85.44
2024-03-18T01:05:34.948Z,85.34
2024-03-18T01:06:34.981Z,85.34
2024-03-18T01:07:35.062Z,85.44
2024-03-18T01:08:35.110Z,85.44
2024-03-18T01:09:35.134Z,85.44
2024-03-18T01:10:35.213Z,85.13
2024-03-18T01:11:35.255Z,85.02
2024-03-18T01:12:35.332Z,85.02
2024-03-18T01:13:35.380Z,84.81
2024-03-18T01:14:35.408Z,84.81
2024-03-18T01:15:35.483Z,84.81
2024-03-18T01:16:35.535Z,84.81
2024-03-18T01:17:35.590Z,84.81
2024-03-18T01:18:35.643Z,84.71
2024-03-18T01:19:35.688Z,84.81
2024-03-18T01:20:35.755Z,84.81
2024-03-18T01:21:35.858Z,84.71
2024-03-18T01:22:35.867Z,84.50
2024-03-18T01:23:35.902Z,84.39
2024-03-18T01:24:35.979Z,84.50
2024-03-18T01:25:36.043Z,84.39
2024-03-18T01:26:36.134Z,84.19
2024-03-18T01:27:36.184Z,84.08
2024-03-18T01:28:36.227Z,84.08
2024-03-18T01:29:36.291Z,84.33
2024-03-18T01:30:36.342Z,84.44
2024-03-18T01:31:36.398Z,84.22
2024-03-18T01:32:36.446Z,84.75
2024-03-18T01:33:36.508Z,85.17
2024-03-18T01:34:36.573Z,85.27
2024-03-18T01:35:36.632Z,85.17
2024-03-18T01:36:36.678Z,85.06
2024-03-18T01:37:36.727Z,84.85
2024-03-18T01:38:36.780Z,84.85
2024-03-18T01:39:36.836Z,84.96
2024-03-18T01:40:36.910Z,85.17
2024-03-18T01:41:36.954Z,85.17
2024-03-18T01:42:37.015Z,84.96
2024-03-18T01:43:37.073Z,84.85
2024-03-18T01:44:37.138Z,84.75
2024-03-18T01:45:37.207Z,84.54
2024-03-18T01:46:37.244Z,84.54
2024-03-18T01:47:37.302Z,84.64
2024-03-18T01:48:37.392Z,84.89
2024-03-18T01:49:37.432Z,84.96
2024-03-18T01:50:37.479Z,84.85
2024-03-18T01:51:37.539Z,85.17
2024-03-18T01:52:37.609Z,85.48
2024-03-18T01:53:37.695Z,85.69
2024-03-18T01:54:37.710Z,85.90
2024-03-18T01:55:37.768Z,85.90
2024-03-18T01:56:37.844Z,85.80
2024-03-18T01:57:37.897Z,85.48
2024-03-18T01:58:37.977Z,85.17
2024-03-18T01:59:37.993Z,84.96
2024-03-18T02:00:38.086Z,84.89
2024-03-18T02:01:38.132Z,85.00
2024-03-18T02:02:38.154Z,85.31
2024-03-18T02:03:38.208Z,85.52
2024-03-18T02:04:38.266Z,85.52
2024-03-18T02:05:38.335Z,85.48
2024-03-18T02:06:38.373Z,85.38
2024-03-18T02:07:38.457Z,85.38
2024-03-18T02:08:38.513Z,85.31
2024-03-18T02:09:38.614Z,85.52
2024-03-18T02:10:38.616Z,85.77
2024-03-18T02:11:38.710Z,86.54
2024-03-18T02:12:38.734Z,87.38
2024-03-18T02:13:38.826Z,88.16
2024-03-18T02:14:38.871Z,88.79
2024-03-18T02:15:38.924Z,89.25
2024-03-18T02:16:39.043Z,89.77
2024-03-18T02:17:39.076Z,89.77
2024-03-18T02:18:39.100Z,90.05
2024-03-18T02:19:39.164Z,90.19
2024-03-18T02:20:39.235Z,90.40
2024-03-18T02:21:39.300Z,90.51
2024-03-18T02:22:39.370Z,90.61
2024-03-18T02:23:39.423Z,91.14
2024-03-18T02:24:39.489Z,91.45
2024-03-18T02:25:39.591Z,91.66
2024-03-18T02:26:39.642Z,91.66
2024-03-18T02:27:39.704Z,91.56
2024-03-18T02:28:39.740Z,91.20
2024-03-18T02:29:39.823Z,90.78
2024-03-18T02:30:39.881Z,90.36
2024-03-18T02:31:39.966Z,90.05
2024-03-18T02:32:40.010Z,89.94
2024-03-18T02:33:40.074Z,89.94
2024-03-18T02:34:40.104Z,90.15
2024-03-18T02:35:40.177Z,90.15
2024-03-18T02:36:40.256Z,90.47
2024-03-18T02:37:40.297Z,90.67
2024-03-18T02:38:40.358Z,90.57
2024-03-18T02:39:40.437Z,90.57
2024-03-18T02:40:40.498Z,90.25
2024-03-18T02:41:40.550Z,89.94
2024-03-18T02:42:40.600Z,89.52
2024-03-18T02:43:40.671Z,89.31
2024-03-18T02:44:40.724Z,89.31
2024-03-18T02:45:40.808Z,89.27
2024-03-18T02:46:40.885Z,88.96
2024-03-18T02:47:40.954Z,88.64
2024-03-18T02:48:41.019Z,88.64
2024-03-18T02:49:41.100Z,88.96
2024-03-18T02:50:41.123Z,89.17
2024-03-18T02:51:41.202Z,89.52
2024-03-18T02:52:41.225Z,89.62
2024-03-18T02:53:41.322Z,90.15
2024-03-18T02:54:41.368Z,90.36
2024-03-18T02:55:41.459Z,90.78
2024-03-18T02:56:41.521Z,90.92
2024-03-18T02:57:41.608Z,91.14
2024-03-18T02:58:41.878Z,91.30
2024-03-18T02:59:41.687Z,91.30
2024-03-18T03:00:41.759Z,90.89
2024-03-18T03:01:41.810Z,90.57
2024-03-18T03:02:41.860Z,90.36
2024-03-18T03:03:41.933Z,90.05
2024-03-18T03:04:42.021Z,90.05
2024-03-18T03:05:42.082Z,90.15
2024-03-18T03:06:42.114Z,90.25
2024-03-18T03:07:44.127Z,90.15
2024-03-18T03:08:42.237Z,90.15
2024-03-18T03:09:42.294Z,90.36
2024-03-18T03:10:42.343Z,90.05
2024-03-18T03:11:42.425Z,89.73
2024-03-18T03:12:42.523Z,89.52
2024-03-18T03:13:42.590Z,89.42
2024-03-18T03:14:42.574Z,89.52
2024-03-18T03:15:42.649Z,89.42
2024-03-18T03:16:42.706Z,89.21
2024-03-18T03:17:42.773Z,89.42
2024-03-18T03:18:42.833Z,89.98
2024-03-18T03:19:42.893Z,90.19
2024-03-18T03:20:42.968Z,90.40
2024-03-18T03:21:43.034Z,90.40
2024-03-18T03:22:43.076Z,90.36
2024-03-18T03:23:43.154Z,90.25
2024-03-18T03:24:43.184Z,90.15
2024-03-18T03:25:43.278Z,90.25
2024-03-18T03:26:43.306Z,90.36
2024-03-18T03:27:43.395Z,90.36
2024-03-18T03:28:43.447Z,90.15
2024-03-18T03:29:43.510Z,90.05
2024-03-18T03:30:43.550Z,89.94
2024-03-18T03:31:43.622Z,89.73
2024-03-18T03:32:43.678Z,89.84
2024-03-18T03:33:43.754Z,90.15
2024-03-18T03:34:43.803Z,90.19
2024-03-18T03:35:43.882Z,90.30
2024-03-18T03:36:43.973Z,90.72
2024-03-18T03:37:44.035Z,90.82
2024-03-18T03:38:44.062Z,90.92
2024-03-18T03:39:44.141Z,90.92
2024-03-18T03:40:44.206Z,90.92
2024-03-18T03:41:44.268Z,90.92
2024-03-18T03:42:44.350Z,90.82
2024-03-18T03:43:44.425Z,90.72
2024-03-18T03:44:44.549Z,90.36
2024-03-18T03:45:44.598Z,90.15
2024-03-18T03:46:44.616Z,89.94
2024-03-18T03:47:44.691Z,89.94
2024-03-18T03:48:44.760Z,89.84
2024-03-18T03:49:44.846Z,89.84
2024-03-18T03:50:44.876Z,89.59
2024-03-18T03:51:44.951Z,89.37
2024-03-18T03:52:45.008Z,89.17
2024-03-18T03:53:45.072Z,88.85
2024-03-18T03:54:45.125Z,88.32
2024-03-18T03:55:45.170Z,88.12
2024-03-18T03:56:45.225Z,87.91
2024-03-18T03:57:45.304Z,87.70
2024-03-18T03:58:45.370Z,87.28
2024-03-18T03:59:45.454Z,87.07
2024-03-18T04:00:45.504Z,86.96
2024-03-18T04:01:45.584Z,87.07
2024-03-18T04:02:45.609Z,87.17
2024-03-18T04:03:45.684Z,87.17
2024-03-18T04:04:45.742Z,87.17
2024-03-18T04:05:45.807Z,87.11
2024-03-18T04:06:45.884Z,87.11
2024-03-18T04:07:45.916Z,87.11
2024-03-18T04:08:46.035Z,87.00
2024-03-18T04:09:46.054Z,87.00
2024-03-18T04:10:46.091Z,87.00
2024-03-18T04:11:46.170Z,86.90
2024-03-18T04:12:46.236Z,87.00
2024-03-18T04:13:46.293Z,87.00
2024-03-18T04:14:46.349Z,87.00
2024-03-18T04:15:46.402Z,87.21
2024-03-18T04:16:46.481Z,87.21
2024-03-18T04:17:46.561Z,87.21
2024-03-18T04:18:46.606Z,87.11
2024-03-18T04:19:46.673Z,87.00
2024-03-18T04:20:46.769Z,87.00
2024-03-18T04:21:46.807Z,87.15
2024-03-18T04:22:46.854Z,87.36
2024-03-18T04:23:46.920Z,87.71
2024-03-18T04:24:47.026Z,88.02
2024-03-18T04:25:47.157Z,88.45
2024-03-18T04:26:47.101Z,88.91
2024-03-18T04:27:47.188Z,89.32
2024-03-18T04:28:47.229Z,89.32
2024-03-18T04:29:47.279Z,89.50
2024-03-18T04:30:47.340Z,89.50
2024-03-18T04:31:47.422Z,89.71
2024-03-18T04:32:47.505Z,89.92
2024-03-18T04:33:47.556Z,89.87
2024-03-18T04:34:47.589Z,89.77
2024-03-18T04:35:47.648Z,89.35
2024-03-18T04:36:47.718Z,89.39
2024-03-18T04:37:47.800Z,89.50
2024-03-18T04:38:47.823Z,89.71
2024-03-18T04:39:47.930Z,89.92
2024-03-18T04:40:47.973Z,90.27
2024-03-18T04:41:48.038Z,90.80
2024-03-18T04:42:48.071Z,91.22
2024-03-18T04:43:48.131Z,91.43
2024-03-18T04:44:48.212Z,91.74
2024-03-18T04:45:48.321Z,91.96
2024-03-18T04:46:48.312Z,92.10
2024-03-18T04:47:48.426Z,92.31
2024-03-18T04:48:48.451Z,92.63
2024-03-18T04:49:48.553Z,92.73
2024-03-18T04:50:48.578Z,92.80
2024-03-18T04:51:48.644Z,92.80
2024-03-18T04:52:51.350Z,92.69
2024-03-18T04:53:48.741Z,92.69
2024-03-18T04:54:48.833Z,92.80
2024-03-18T04:55:48.885Z,92.80
2024-03-18T04:56:48.941Z,92.80
2024-03-18T04:57:49.022Z,92.80
2024-03-18T04:58:49.052Z,92.90
2024-03-18T04:59:49.134Z,92.90
2024-03-18T05:00:49.176Z,92.90
2024-03-18T05:01:49.252Z,92.80
2024-03-18T05:02:49.317Z,92.69
2024-03-18T05:03:51.306Z,92.48
2024-03-18T05:04:49.454Z,92.27
2024-03-18T05:05:49.525Z,92.16
2024-03-18T05:06:49.566Z,92.27
2024-03-18T05:07:49.638Z,92.23
2024-03-18T05:08:49.699Z,92.33
2024-03-18T05:09:49.751Z,92.12
2024-03-18T05:10:49.803Z,91.71
2024-03-18T05:11:49.877Z,91.35
2024-03-18T05:12:49.943Z,91.03
2024-03-18T05:13:50.008Z,90.86
2024-03-18T05:14:50.055Z,90.82
2024-03-18T05:15:50.117Z,90.82
2024-03-18T05:16:50.202Z,90.61
2024-03-18T05:17:50.249Z,90.40
2024-03-18T05:18:50.320Z,90.40
2024-03-18T05:19:50.392Z,90.55
2024-03-18T05:20:50.450Z,90.72
2024-03-18T05:21:50.519Z,90.82
2024-03-18T05:22:50.579Z,90.82
2024-03-18T05:23:50.663Z,90.51
2024-03-18T05:24:50.692Z,90.19
2024-03-18T05:25:50.782Z,89.98
2024-03-18T05:26:50.825Z,89.84
2024-03-18T05:27:50.915Z,89.84
2024-03-18T05:28:51.002Z,89.73
2024-03-18T05:29:51.057Z,89.52
2024-03-18T05:30:51.117Z,89.21
2024-03-18T05:31:51.189Z,89.00
2024-03-18T05:32:51.254Z,88.68
2024-03-18T05:33:51.318Z,88.64
2024-03-18T05:34:51.403Z,88.16
2024-03-18T05:35:51.435Z,88.05
2024-03-18T05:36:51.539Z,88.16
2024-03-18T05:37:51.611Z,88.26
2024-03-18T05:38:51.642Z,88.05
2024-03-18T05:39:51.750Z,87.95
2024-03-18T05:40:51.775Z,88.05
2024-03-18T05:41:51.877Z,88.26
2024-03-18T05:42:53.908Z,88.37
2024-03-18T05:43:51.989Z,88.68
2024-03-18T05:44:52.076Z,88.79
2024-03-18T05:45:52.131Z,88.79
2024-03-18T05:46:52.185Z,88.75
2024-03-18T05:47:52.254Z,88.75
2024-03-18T05:48:52.310Z,88.43
2024-03-18T05:49:52.383Z,88.12
2024-03-18T05:50:52.455Z,87.80
2024-03-18T05:51:52.513Z,87.80
2024-03-18T05:52:52.590Z,87.91
2024-03-18T05:53:52.655Z,88.01
2024-03-18T05:54:52.711Z,87.91
2024-03-18T05:55:52.786Z,88.16
2024-03-18T05:56:52.847Z,88.47
2024-03-18T05:57:52.942Z,88.79
2024-03-18T05:58:53.008Z,89.04
2024-03-18T05:59:53.061Z,89.42
2024-03-18T06:00:53.092Z,89.31
2024-03-18T06:01:53.146Z,89.21
2024-03-18T06:02:53.228Z,89.10
2024-03-18T06:03:53.308Z,88.89
2024-03-18T06:04:53.365Z,88.75
2024-03-18T06:05:53.434Z,88.79
2024-03-18T06:06:53.540Z,88.75
2024-03-18T06:07:53.575Z,88.75
2024-03-18T06:08:53.644Z,88.64
2024-03-18T06:09:53.729Z,88.89
2024-03-18T06:10:53.790Z,89.10
2024-03-18T06:11:53.834Z,89.31
2024-03-18T06:12:53.904Z,89.31
2024-03-18T06:13:53.970Z,89.31
2024-03-18T06:14:54.066Z,89.21
2024-03-18T06:15:54.126Z,89.21
2024-03-18T06:16:54.195Z,89.10
2024-03-18T06:17:54.233Z,89.17
2024-03-18T06:18:54.298Z,89.42
2024-03-18T06:19:54.375Z,89.48
2024-03-18T06:20:57.377Z,89.37
2024-03-18T06:21:54.486Z,89.17
2024-03-18T06:22:54.584Z,89.06
2024-03-18T06:23:54.642Z,88.75
2024-03-18T06:24:54.686Z,88.89
2024-03-18T06:25:54.745Z,89.10
2024-03-18T06:26:54.808Z,89.21
2024-03-18T06:27:54.872Z,89.37
2024-03-18T06:28:54.946Z,89.17
2024-03-18T06:29:54.971Z,89.17
2024-03-18T06:30:55.058Z,89.17
2024-03-18T06:31:55.130Z,89.06
2024-03-18T06:32:55.217Z,89.06
2024-03-18T06:33:55.249Z,99.28
2024-03-18T06:34:55.309Z,99.99
2024-03-18T06:35:55.368Z,99.99
2024-03-18T06:36:55.437Z,99.99
2024-03-18T06:37:55.522Z,99.99
2024-03-18T06:38:55.606Z,92.79
2024-03-18T06:39:55.638Z,87.76
2024-03-18T06:40:55.687Z,84.73
2024-03-18T06:41:55.778Z,83.13
2024-03-18T06:42:55.840Z,83.17
2024-03-18T06:43:55.858Z,83.90
2024-03-18T06:44:55.922Z,84.22
2024-03-18T06:45:55.995Z,84.11
2024-03-18T06:46:56.093Z,84.36
2024-03-18T06:47:56.117Z,84.63
2024-03-18T06:48:56.179Z,84.63
2024-03-18T06:49:56.230Z,84.46
2024-03-18T06:50:56.344Z,84.15
2024-03-18T06:51:56.376Z,84.56
2024-03-18T06:52:56.442Z,84.25
2024-03-18T06:53:56.499Z,84.46
2024-03-18T06:54:56.563Z,84.88
2024-03-18T06:55:56.619Z,84.88
2024-03-18T06:56:56.686Z,84.19
2024-03-18T06:57:56.711Z,84.81
2024-03-18T06:58:56.782Z,85.24
2024-03-18T06:59:56.831Z,85.19
2024-03-18T07:00:59.003Z,85.30
2024-03-18T07:01:57.004Z,85.16
2024-03-18T07:02:57.032Z,84.84
2024-03-18T07:03:57.070Z,84.42
2024-03-18T07:04:57.143Z,84.22
2024-03-18T07:05:57.182Z,83.80
2024-03-18T07:06:58.009Z,83.59
2024-03-18T07:07:57.309Z,83.38
2024-03-18T07:08:57.368Z,83.69
2024-03-18T07:10:05.141Z,83.55
2024-03-18T07:10:57.671Z,83.34
2024-03-18T07:11:57.556Z,82.60
2024-03-18T07:12:57.596Z,82.29
2024-03-18T07:13:57.670Z,82.57
2024-03-18T07:14:57.701Z,82.67
2024-03-18T07:15:57.748Z,81.63
2024-03-18T07:16:57.942Z,81.73
2024-03-18T07:17:57.871Z,81.32
2024-03-18T07:18:57.935Z,80.90
2024-03-18T07:20:07.970Z,80.86
2024-03-18T07:20:58.079Z,80.34
2024-03-18T07:21:58.071Z,80.02
2024-03-18T07:22:58.139Z,79.33
2024-03-18T07:23:58.210Z,79.92
2024-03-18T07:24:58.314Z,80.02
2024-03-18T07:25:58.343Z,79.88
2024-03-18T07:26:58.435Z,79.36
2024-03-18T07:27:58.457Z,79.15
2024-03-18T07:28:58.496Z,78.80
2024-03-18T07:29:58.535Z,78.49
2024-03-18T07:30:58.579Z,76.92
2024-03-18T07:31:58.651Z,77.66
2024-03-18T07:32:58.748Z,77.62
2024-03-18T07:33:58.794Z,77.51
2024-03-18T07:35:07.691Z,76.37
2024-03-18T07:35:58.863Z,76.37
2024-03-18T07:36:58.915Z,75.43
2024-03-18T07:38:00.779Z,75.01
2024-03-18T07:38:59.038Z,75.12
2024-03-18T07:39:59.060Z,75.12
2024-03-18T07:40:59.125Z,75.12
2024-03-18T07:41:59.184Z,75.01
2024-03-18T07:42:59.282Z,75.12
2024-03-18T07:43:59.295Z,75.50
2024-03-18T07:44:59.467Z,75.40
2024-03-18T07:45:59.402Z,73.59
2024-03-18T07:46:59.472Z,73.17
2024-03-18T07:47:59.533Z,73.49
2024-03-18T07:48:59.565Z,72.44
2024-03-18T07:49:59.605Z,73.35
2024-03-18T07:50:59.649Z,73.55
2024-03-18T07:51:59.722Z,71.02
2024-03-18T07:52:59.755Z,68.52
2024-03-18T07:53:59.791Z,67.69
2024-03-18T07:54:59.839Z,67.27
2024-03-18T07:56:00.000Z,66.44
2024-03-18T07:56:59.963Z,66.72
2024-03-18T07:58:00.015Z,66.41
2024-03-18T07:59:00.091Z,65.16
2024-03-18T08:00:00.157Z,64.85
2024-03-18T08:01:00.150Z,65.68
2024-03-18T08:02:00.321Z,65.96
2024-03-18T08:03:00.251Z,64.92
2024-03-18T08:04:00.284Z,63.96
2024-03-18T08:05:00.346Z,62.40
2024-03-18T08:06:00.405Z,62.50
2024-03-18T08:07:00.430Z,63.12
2024-03-18T08:08:00.550Z,63.43
2024-03-18T08:09:00.559Z,62.40
2024-03-18T08:10:00.763Z,61.46
2024-03-18T08:11:00.672Z,61.25
2024-03-18T08:12:00.652Z,60.94
2024-03-18T08:13:00.801Z,61.36
2024-03-18T08:14:00.817Z,60.73
2024-03-18T08:15:00.885Z,61.25
2024-03-18T08:16:00.876Z,61.15
2024-03-18T08:17:00.976Z,60.94
2024-03-18T08:18:00.959Z,61.25
2024-03-18T08:19:01.016Z,60.73
2024-03-18T08:20:01.039Z,60.60
2024-03-18T08:21:01.144Z,59.88
2024-03-18T08:22:10.360Z,59.45
2024-03-18T08:23:01.208Z,60.60
2024-03-18T08:24:01.260Z,59.64
2024-03-18T08:25:01.304Z,59.56
2024-03-18T08:26:01.333Z,59.64
2024-03-18T08:27:01.371Z,59.84
2024-03-18T08:28:01.535Z,59.53
2024-03-18T08:29:01.509Z,59.82
2024-03-18T08:30:01.756Z,57.67
2024-03-18T08:31:01.576Z,59.01
2024-03-18T08:32:01.636Z,59.61
2024-03-18T08:33:13.005Z,59.30
2024-03-18T08:34:05.141Z,58.67
2024-03-18T08:35:01.957Z,59.19
2024-03-18T08:36:01.824Z,59.06
2024-03-18T08:37:01.851Z,59.77
2024-03-18T08:38:01.909Z,58.94
2024-03-18T08:39:01.934Z,56.57
2024-03-18T08:40:02.022Z,57.40
2024-03-18T08:41:02.093Z,58.23
2024-03-18T08:42:02.119Z,57.71
2024-03-18T08:43:02.098Z,57.69
2024-03-18T08:44:02.139Z,57.48
2024-03-18T08:45:02.179Z,56.52
2024-03-18T08:46:02.278Z,56.10
2024-03-18T08:47:02.242Z,56.31
2024-03-18T08:48:02.305Z,54.75
2024-03-18T08:49:02.373Z,56.13
2024-03-18T08:50:02.445Z,56.78
2024-03-18T08:51:02.418Z,58.13
2024-03-18T08:52:02.633Z,57.48
2024-03-18T08:53:02.524Z,56.13
2024-03-18T08:54:02.591Z,57.07
2024-03-18T08:55:02.592Z,56.21
2024-03-18T08:56:02.658Z,56.13
2024-03-18T08:57:02.699Z,56.31
2024-03-18T08:58:02.682Z,55.98
2024-03-18T08:59:02.836Z,55.66
2024-03-18T09:00:02.844Z,55.35
2024-03-18T09:01:02.889Z,54.81
2024-03-18T09:02:02.954Z,55.12
2024-03-18T09:03:02.977Z,55.46
2024-03-18T09:04:03.064Z,55.15
2024-03-18T09:05:03.128Z,55.27
2024-03-18T09:06:02.995Z,56.03
2024-03-18T09:07:03.008Z,55.90
2024-03-18T09:08:03.041Z,57.04
2024-03-18T09:09:03.087Z,56.39
2024-03-18T09:10:03.129Z,55.56
2024-03-18T09:11:03.155Z,55.87
2024-03-18T09:12:03.175Z,54.83
2024-03-18T09:13:03.175Z,55.04
2024-03-18T09:14:03.356Z,55.54
2024-03-18T09:15:03.256Z,54.91
2024-03-18T09:16:03.354Z,56.34
2024-03-18T09:17:03.398Z,55.62
2024-03-18T09:18:03.356Z,54.24
2024-03-18T09:19:03.379Z,54.16
2024-03-18T09:20:03.419Z,53.54
2024-03-18T09:21:03.442Z,54.11
2024-03-18T09:22:03.482Z,55.12
2024-03-18T09:23:03.507Z,55.33
2024-03-18T09:24:03.539Z,55.62
2024-03-18T09:25:03.599Z,54.08
2024-03-18T09:26:03.619Z,55.25
2024-03-18T09:27:03.630Z,55.85
2024-03-18T09:28:03.657Z,54.91
2024-03-18T09:29:03.681Z,55.22
2024-03-18T09:30:03.736Z,56.57
2024-03-18T09:31:03.738Z,55.72
2024-03-18T09:32:03.885Z,54.86
2024-03-18T09:33:03.825Z,54.45
2024-03-18T09:34:03.871Z,54.97
2024-03-18T09:35:04.014Z,54.66
2024-03-18T09:36:03.924Z,54.01
2024-03-18T09:37:03.932Z,54.53
2024-03-18T09:38:04.172Z,52.77
2024-03-18T09:39:04.004Z,52.98
2024-03-18T09:40:04.047Z,52.40
2024-03-18T09:41:04.069Z,53.15
2024-03-18T09:42:04.089Z,54.21
2024-03-18T09:43:04.096Z,54.52
2024-03-18T09:44:04.189Z,54.73
2024-03-18T09:45:04.252Z,55.82
2024-03-18T09:46:04.219Z,54.76
2024-03-18T09:47:04.220Z,53.52
2024-03-18T09:48:04.306Z,54.66
2024-03-18T09:49:04.326Z,53.28
2024-03-18T09:50:04.340Z,53.59
2024-03-18T09:51:04.382Z,52.46
2024-03-18T09:52:04.351Z,52.64
2024-03-18T09:53:05.839Z,53.67
2024-03-18T09:54:04.429Z,52.31
2024-03-18T09:55:04.448Z,53.55
2024-03-18T09:56:04.479Z,52.72
2024-03-18T09:57:04.510Z,53.21
2024-03-18T09:58:04.534Z,52.59
2024-03-18T09:59:04.585Z,53.11
2024-03-18T10:00:04.564Z,51.54
2024-03-18T10:01:04.594Z,51.66
2024-03-18T10:02:04.662Z,52.39
2024-03-18T10:03:04.664Z,51.95
2024-03-18T10:04:04.738Z,51.35
2024-03-18T10:05:04.826Z,51.76
2024-03-18T10:06:04.742Z,51.68
2024-03-18T10:07:04.780Z,52.18
2024-03-18T10:08:04.835Z,51.28
2024-03-18T10:09:04.810Z,51.84
2024-03-18T10:10:04.936Z,52.46
2024-03-18T10:11:04.965Z,52.54
2024-03-18T10:12:04.906Z,52.38
2024-03-18T10:13:04.964Z,53.93
2024-03-18T10:14:04.995Z,54.22
2024-03-18T10:15:04.966Z,53.36
2024-03-18T10:16:05.008Z,51.81
2024-03-18T10:17:05.070Z,52.98
2024-03-18T10:18:05.039Z,53.18
2024-03-18T10:19:05.057Z,52.93
2024-03-18T10:20:05.083Z,51.48
2024-03-18T10:21:05.180Z,51.37
2024-03-18T10:22:05.165Z,51.32
2024-03-18T10:23:05.153Z,52.04
2024-03-18T10:24:05.184Z,52.36
2024-03-18T10:25:05.252Z,52.12
2024-03-18T10:26:05.244Z,51.92
2024-03-18T10:27:05.246Z,51.71
2024-03-18T10:28:05.289Z,52.02
2024-03-18T10:29:05.387Z,52.23
2024-03-18T10:30:05.428Z,52.83
2024-03-18T10:31:05.354Z,52.72
2024-03-18T10:32:05.384Z,51.15
2024-03-18T10:33:05.381Z,51.25
2024-03-18T10:34:05.455Z,51.25
2024-03-18T10:35:05.469Z,50.76
2024-03-18T10:36:05.469Z,52.12
2024-03-18T10:37:05.507Z,52.41
2024-03-18T10:38:05.547Z,52.00
2024-03-18T10:39:05.600Z,52.10
2024-03-18T10:40:05.582Z,51.37
2024-03-18T10:41:05.606Z,52.20
2024-03-18T10:42:05.627Z,51.37
2024-03-18T10:43:05.668Z,52.51
2024-03-18T10:44:05.701Z,52.91
2024-03-18T10:45:05.702Z,51.35
2024-03-18T10:46:05.749Z,51.15
2024-03-18T10:47:05.799Z,51.89
2024-03-18T10:48:05.782Z,51.89
2024-03-18T10:49:05.780Z,52.10
2024-03-18T10:50:05.817Z,51.48
2024-03-18T10:51:05.811Z,51.58
2024-03-18T10:52:05.893Z,51.81
2024-03-18T10:53:05.927Z,52.31
2024-03-18T10:54:05.917Z,52.08
2024-03-18T10:55:05.916Z,50.94
2024-03-18T10:56:05.956Z,50.92
2024-03-18T10:57:05.940Z,51.33
2024-03-18T10:58:05.979Z,50.58
2024-03-18T10:59:06.004Z,50.87
2024-03-18T11:00:06.058Z,50.04
2024-03-18T11:01:06.130Z,49.76
2024-03-18T11:02:06.173Z,49.63
2024-03-18T11:03:06.104Z,48.83
2024-03-18T11:04:06.109Z,49.14
2024-03-18T11:05:06.118Z,49.76
2024-03-18T11:06:06.204Z,48.52
2024-03-18T11:07:06.215Z,47.80
2024-03-18T11:08:06.193Z,48.33
2024-03-18T11:09:06.273Z,49.26
2024-03-18T11:10:06.240Z,49.57
2024-03-18T11:11:06.446Z,50.01
2024-03-18T11:12:06.392Z,50.29
2024-03-18T11:13:06.407Z,49.99
2024-03-18T11:14:06.383Z,50.48
2024-03-18T11:15:06.368Z,50.07
2024-03-18T11:16:06.444Z,50.54
2024-03-18T11:17:08.543Z,49.51
2024-03-18T11:18:06.446Z,49.07
2024-03-18T11:19:06.443Z,47.75
2024-03-18T11:20:06.496Z,49.63
2024-03-18T11:21:06.511Z,48.99
2024-03-18T11:22:06.523Z,48.88
2024-03-18T11:23:06.526Z,49.51
2024-03-18T11:24:06.574Z,48.37
2024-03-18T11:25:06.587Z,48.44
2024-03-18T11:26:06.646Z,48.97
2024-03-18T11:27:06.647Z,50.01
2024-03-18T11:28:06.765Z,49.78
2024-03-18T11:29:06.667Z,48.31
2024-03-18T11:30:06.691Z,47.49
2024-03-18T11:31:06.711Z,46.66
2024-03-18T11:32:06.729Z,47.49
2024-03-18T11:33:06.785Z,47.81
2024-03-18T11:34:06.786Z,48.93
2024-03-18T11:35:06.821Z,48.00
2024-03-18T11:36:06.830Z,48.52
2024-03-18T11:37:06.833Z,47.38
2024-03-18T11:38:07.058Z,47.61
2024-03-18T11:39:06.914Z,48.54
2024-03-18T11:40:06.907Z,48.62
2024-03-18T11:41:06.969Z,49.32
2024-03-18T11:42:06.971Z,48.08
2024-03-18T11:43:07.013Z,48.39
2024-03-18T11:44:06.989Z,48.93
2024-03-18T11:45:07.024Z,48.44
2024-03-18T11:46:07.065Z,48.93
2024-03-18T11:47:07.082Z,49.44
2024-03-18T11:48:07.112Z,47.71
2024-03-18T11:49:07.110Z,48.95
2024-03-18T11:50:07.177Z,48.65
2024-03-18T11:51:07.151Z,49.88
2024-03-18T11:52:07.183Z,49.96
2024-03-18T11:53:07.208Z,49.84
2024-03-18T11:54:07.295Z,48.27
2024-03-18T11:55:07.232Z,48.06
2024-03-18T11:56:07.274Z,47.42
2024-03-18T11:57:07.291Z,47.19
2024-03-18T11:58:07.335Z,47.11
2024-03-18T11:59:07.340Z,47.21
2024-03-18T12:00:07.352Z,46.62
2024-03-18T12:01:07.914Z,47.55
2024-03-18T12:02:07.402Z,47.34
2024-03-18T12:03:07.428Z,48.27
2024-03-18T12:04:07.468Z,48.06
2024-03-18T12:05:07.482Z,46.72
2024-03-18T12:06:07.489Z,47.44
2024-03-18T12:07:07.497Z,47.65
2024-03-18T12:08:07.549Z,47.05
2024-03-18T12:09:07.529Z,47.67
2024-03-18T12:10:07.538Z,47.56
2024-03-18T12:11:07.566Z,47.05
2024-03-18T12:12:07.595Z,47.16
2024-03-18T12:13:07.605Z,47.07
2024-03-18T12:14:07.647Z,47.38
2024-03-18T12:15:07.662Z,47.77
2024-03-18T12:16:07.664Z,48.29
2024-03-18T12:17:14.304Z,47.05
2024-03-18T12:18:07.716Z,47.05
2024-03-18T12:19:07.710Z,47.16
2024-03-18T12:20:07.742Z,47.36
2024-03-18T12:21:07.763Z,47.56
2024-03-18T12:22:07.793Z,47.77
2024-03-18T12:23:07.826Z,47.24
2024-03-18T12:24:07.813Z,47.03
2024-03-18T12:25:07.842Z,46.74
2024-03-18T12:26:07.977Z,46.84
2024-03-18T12:27:07.870Z,47.56
2024-03-18T12:28:07.884Z,46.74
2024-03-18T12:29:07.991Z,46.95
2024-03-18T12:30:07.936Z,46.84
2024-03-18T12:31:07.966Z,46.84
2024-03-18T12:32:08.022Z,46.53
2024-03-18T12:33:07.977Z,46.84
2024-03-18T12:34:08.012Z,46.53
2024-03-18T12:35:08.057Z,46.43
2024-03-18T12:36:08.042Z,46.74
2024-03-18T12:37:08.081Z,47.05
2024-03-18T12:38:08.096Z,47.56
2024-03-18T12:39:08.081Z,46.53
2024-03-18T12:40:08.151Z,46.56
2024-03-18T12:41:08.191Z,47.38
2024-03-18T12:42:08.176Z,46.86
2024-03-18T12:43:08.175Z,46.43
2024-03-18T12:44:08.247Z,46.95
2024-03-18T12:45:08.244Z,46.43
2024-03-18T12:46:16.524Z,45.63
2024-03-18T12:47:08.329Z,46.25
2024-03-18T12:48:08.299Z,46.43
2024-03-18T12:49:08.306Z,45.92
2024-03-18T12:50:08.353Z,46.02
2024-03-18T12:51:08.340Z,46.82
2024-03-18T12:52:08.379Z,47.63
2024-03-18T12:53:08.422Z,46.59